Time;durP1;ratioP1;P1;durP2;ratioP2;P2;SDS_P1;SDS_P2;PMS_P1;PMS_P2;Temp;Humidity;BMP_temperature;BMP_pressure;BME280_temperature;BME280_humidity;BME280_pressure;Samples;Min_cycle;Max_cycle;Signal;HPM_P1;HPM_P2
2023/06/15 00:01:14;;;;;;;3.35;3.05;;;;;;;;;;5051269;28;20412;-80
2023/06/15 00:03:40;;;;;;;3.47;3.17;;;;;;;;;;5051328;28;20374;-80
2023/06/15 00:06:06;;;;;;;3.22;2.70;;;;;;;;;;5051062;28;20847;-80
2023/06/15 00:08:32;;;;;;;3.10;2.90;;;;;;;;;;5052658;28;20394;-80
2023/06/15 00:10:58;;;;;;;3.00;2.70;;;;;;;;;;5055271;28;20381;-80
2023/06/15 00:13:24;;;;;;;3.30;3.00;;;;;;;;;;5055351;28;20939;-80
2023/06/15 00:15:50;;;;;;;3.23;3.00;;;;;;;;;;5055185;28;20377;-80
2023/06/15 00:18:17;;;;;;;3.17;2.95;;;;;;;;;;5055186;28;20397;-80
2023/06/15 00:20:44;;;;;;;3.00;2.80;;;;;;;;;;5058647;28;20384;-80
2023/06/15 00:23:10;;;;;;;3.57;3.27;;;;;;;;;;5074887;28;20784;-80
2023/06/15 00:25:37;;;;;;;4.07;3.13;;;;;;;;;;5056065;28;20381;-80
2023/06/15 00:28:03;;;;;;;3.47;3.15;;;;;;;;;;5073437;28;20395;-80
2023/06/15 00:30:29;;;;;;;3.13;2.90;;;;;;;;;;5074864;28;20383;-80
2023/06/15 00:32:55;;;;;;;3.60;3.20;;;;;;;;;;5075285;28;20399;-80
2023/06/15 00:35:21;;;;;;;3.08;2.88;;;;;;;;;;5074891;28;20372;-79
2023/06/15 00:37:47;;;;;;;3.17;2.90;;;;;;;;;;5074881;28;20433;-80
2023/06/15 00:40:13;;;;;;;3.42;3.13;;;;;;;;;;5074757;28;20850;-80
2023/06/15 00:42:39;;;;;;;4.18;3.30;;;;;;;;;;5074800;28;20458;-80
2023/06/15 00:45:06;;;;;;;4.03;3.28;;;;;;;;;;5070812;28;20385;-79
2023/06/15 00:47:38;;;;;;;3.55;3.22;;;;;;;;;;5054366;28;20381;-79
2023/06/15 00:50:09;;;;;;;3.28;2.97;;;;;;;;;;5054639;28;20463;-80
2023/06/15 00:52:35;;;;;;;3.08;2.78;;;;;;;;;;5054943;28;20480;-80
2023/06/15 00:55:03;;;;;;;3.30;3.00;;;;;;;;;;5054487;28;20370;-80
2023/06/15 00:57:30;;;;;;;3.63;3.22;;;;;;;;;;5052109;28;20754;-80
2023/06/15 00:59:56;;;;;;;3.50;3.10;;;;;;;;;;5054402;28;20460;-79
2023/06/15 01:02:24;;;;;;;2.97;2.78;;;;;;;;;;5054477;28;20389;-79
2023/06/15 01:04:50;;;;;;;3.35;3.05;;;;;;;;;;5054374;28;20404;-79
2023/06/15 01:07:16;;;;;;;4.18;3.22;;;;;;;;;;5054082;28;20845;-80
2023/06/15 01:09:43;;;;;;;3.95;3.30;;;;;;;;;;5054204;28;20389;-80
2023/06/15 01:12:11;;;;;;;3.30;3.10;;;;;;;;;;5054200;28;20405;-80
2023/06/15 01:14:38;;;;;;;3.40;3.10;;;;;;;;;;5054276;28;20472;-80
2023/06/15 01:17:06;;;;;;;3.25;3.05;;;;;;;;;;5054129;28;20381;-80
2023/06/15 01:19:40;;;;;;;4.30;3.13;;;;;;;;;;5052230;28;20403;-80
2023/06/15 01:22:29;;;;;;;3.20;3.00;;;;;;;;;;5053921;28;20389;-80
2023/06/15 01:25:03;;;;;;;3.10;2.80;;;;;;;;;;5067880;28;20499;-80
2023/06/15 01:27:29;;;;;;;3.20;3.00;;;;;;;;;;5059157;28;20472;-80
2023/06/15 01:29:56;;;;;;;3.63;2.88;;;;;;;;;;5065879;28;20749;-80
2023/06/15 01:32:22;;;;;;;3.17;2.97;;;;;;;;;;5059371;28;20413;-80
2023/06/15 01:34:48;;;;;;;3.17;2.92;;;;;;;;;;5073425;28;20383;-80
2023/06/15 01:37:14;;;;;;;4.20;3.17;;;;;;;;;;5073641;28;20429;-80
2023/06/15 01:39:42;;;;;;;3.35;3.05;;;;;;;;;;5073919;28;20376;-80
2023/06/15 01:42:08;;;;;;;4.28;3.03;;;;;;;;;;5073693;28;20714;-80
2023/06/15 01:44:35;;;;;;;3.92;2.97;;;;;;;;;;5073745;28;20390;-80
2023/06/15 01:47:01;;;;;;;3.60;3.30;;;;;;;;;;5064158;28;20377;-80
2023/06/15 01:49:27;;;;;;;3.33;3.03;;;;;;;;;;5053656;28;20408;-80
2023/06/15 01:51:53;;;;;;;3.20;3.00;;;;;;;;;;5053413;28;20781;-80
2023/06/15 01:54:19;;;;;;;3.17;2.88;;;;;;;;;;5053542;28;20373;-79
2023/06/15 01:56:46;;;;;;;3.97;3.25;;;;;;;;;;5053259;28;20385;-80
2023/06/15 01:59:12;;;;;;;3.13;2.83;;;;;;;;;;5052213;28;21180;-80
2023/06/15 02:01:38;;;;;;;3.40;3.10;;;;;;;;;;5053337;28;20481;-80
2023/06/15 02:04:04;;;;;;;4.43;3.27;;;;;;;;;;5053708;28;20385;-80
2023/06/15 02:06:30;;;;;;;7.30;3.60;;;;;;;;;;5053047;28;20465;-80
2023/06/15 02:08:56;;;;;;;3.22;3.03;;;;;;;;;;5053253;28;20435;-80
2023/06/15 02:11:22;;;;;;;3.10;2.90;;;;;;;;;;5053031;28;20378;-80
2023/06/15 02:13:48;;;;;;;4.65;3.08;;;;;;;;;;5053175;28;20847;-80
2023/06/15 02:16:15;;;;;;;3.47;3.17;;;;;;;;;;5053025;28;20376;-79
2023/06/15 02:18:44;;;;;;;3.85;3.45;;;;;;;;;;5052947;28;20385;-80
2023/06/15 02:21:10;;;;;;;3.33;3.00;;;;;;;;;;5052930;28;20389;-80
2023/06/15 02:23:37;;;;;;;3.63;3.33;;;;;;;;;;5052985;28;20378;-80
2023/06/15 02:26:04;;;;;;;3.40;3.10;;;;;;;;;;5052802;28;20385;-80
2023/06/15 02:28:30;;;;;;;3.30;3.00;;;;;;;;;;5052698;28;20519;-80
2023/06/15 02:30:56;;;;;;;3.22;2.92;;;;;;;;;;5059418;28;20411;-80
2023/06/15 02:33:22;;;;;;;3.50;3.20;;;;;;;;;;5060570;28;20531;-80
2023/06/15 02:35:48;;;;;;;3.40;3.10;;;;;;;;;;5064453;28;20380;-80
2023/06/15 02:38:14;;;;;;;3.80;3.50;;;;;;;;;;5059668;28;20731;-80
2023/06/15 02:40:40;;;;;;;3.65;3.30;;;;;;;;;;5059500;28;20379;-80
2023/06/15 02:43:06;;;;;;;3.40;3.10;;;;;;;;;;5060013;28;20885;-80
2023/06/15 02:45:32;;;;;;;3.13;2.90;;;;;;;;;;5052457;28;20485;-79
2023/06/15 02:47:59;;;;;;;3.45;2.90;;;;;;;;;;5052288;28;20413;-80
2023/06/15 02:50:25;;;;;;;3.60;3.30;;;;;;;;;;5052509;28;20400;-81
2023/06/15 02:52:53;;;;;;;4.07;3.45;;;;;;;;;;5052221;28;20397;-80
2023/06/15 02:55:19;;;;;;;3.60;3.30;;;;;;;;;;5052270;28;20374;-80
2023/06/15 02:57:45;;;;;;;3.63;3.33;;;;;;;;;;5051878;28;20463;-80
2023/06/15 03:00:13;;;;;;;5.03;3.53;;;;;;;;;;5052142;28;20853;-80
2023/06/15 03:02:41;;;;;;;3.63;3.33;;;;;;;;;;5051582;28;20392;-80
2023/06/15 03:05:07;;;;;;;4.13;3.30;;;;;;;;;;5051621;28;20389;-80
2023/06/15 03:07:33;;;;;;;3.90;3.45;;;;;;;;;;5052026;28;20390;-80
2023/06/15 03:09:59;;;;;;;3.50;3.20;;;;;;;;;;5052149;28;20393;-80
2023/06/15 03:12:25;;;;;;;4.00;3.40;;;;;;;;;;5051862;28;20416;-80
2023/06/15 03:14:52;;;;;;;3.60;3.30;;;;;;;;;;5051987;28;20385;-80
2023/06/15 03:17:19;;;;;;;3.53;3.30;;;;;;;;;;5051799;28;20405;-80
2023/06/15 03:19:47;;;;;;;3.85;3.55;;;;;;;;;;5051867;28;20380;-79
2023/06/15 03:22:13;;;;;;;3.28;3.00;;;;;;;;;;5051794;28;20385;-80
2023/06/15 03:24:40;;;;;;;3.50;3.20;;;;;;;;;;5051936;28;20389;-79
2023/06/15 03:27:06;;;;;;;3.95;3.58;;;;;;;;;;5051336;28;20429;-80
2023/06/15 03:29:36;;;;;;;3.78;3.47;;;;;;;;;;5051777;28;20378;-80
2023/06/15 03:32:09;;;;;;;4.47;3.70;;;;;;;;;;5051538;28;20882;-81
2023/06/15 03:34:36;;;;;;;3.75;3.40;;;;;;;;;;5051769;28;20738;-80
2023/06/15 03:37:02;;;;;;;3.95;3.55;;;;;;;;;;5051419;28;20416;-80
2023/06/15 03:39:28;;;;;;;3.75;3.45;;;;;;;;;;5063988;28;20850;-80
2023/06/15 03:41:54;;;;;;;3.63;3.35;;;;;;;;;;5051357;28;20459;-79
2023/06/15 03:44:20;;;;;;;3.40;3.10;;;;;;;;;;5055627;28;20384;-79
2023/06/15 03:46:47;;;;;;;3.80;3.30;;;;;;;;;;5066416;28;20467;-79
2023/06/15 03:49:13;;;;;;;3.67;3.30;;;;;;;;;;5071122;28;20872;-80
2023/06/15 03:51:39;;;;;;;3.42;3.13;;;;;;;;;;5071277;28;20896;-80
2023/06/15 03:54:05;;;;;;;3.93;3.63;;;;;;;;;;5071565;28;20375;-79
2023/06/15 03:56:31;;;;;;;3.60;3.30;;;;;;;;;;5071097;28;20871;-79
2023/06/15 03:58:58;;;;;;;4.03;3.63;;;;;;;;;;5071271;28;20892;-80
2023/06/15 04:01:26;;;;;;;3.88;3.50;;;;;;;;;;5071274;28;20376;-79
2023/06/15 04:03:53;;;;;;;4.07;3.67;;;;;;;;;;5071308;28;20387;-80
2023/06/15 04:06:21;;;;;;;3.78;3.47;;;;;;;;;;5069885;28;20463;-79
2023/06/15 04:08:47;;;;;;;3.45;3.25;;;;;;;;;;5071238;28;20415;-79
2023/06/15 04:11:13;;;;;;;3.38;3.17;;;;;;;;;;5071175;28;20411;-79
2023/06/15 04:13:39;;;;;;;3.75;3.45;;;;;;;;;;5071259;28;20454;-80
2023/06/15 04:16:05;;;;;;;5.22;4.00;;;;;;;;;;5071401;28;20793;-79
2023/06/15 04:18:31;;;;;;;3.70;3.40;;;;;;;;;;5070927;28;20407;-79
2023/06/15 04:20:57;;;;;;;3.90;3.50;;;;;;;;;;5071173;28;20404;-79
2023/06/15 04:23:23;;;;;;;4.15;3.80;;;;;;;;;;5071002;28;20426;-80
2023/06/15 04:25:49;;;;;;;4.30;3.53;;;;;;;;;;5071090;28;20372;-79
2023/06/15 04:28:16;;;;;;;4.55;3.63;;;;;;;;;;5069574;28;20396;-79
2023/06/15 04:30:46;;;;;;;3.97;3.67;;;;;;;;;;5060740;28;20386;-80
2023/06/15 04:33:16;;;;;;;4.18;3.83;;;;;;;;;;5050902;28;20405;-79
2023/06/15 04:35:45;;;;;;;4.05;3.65;;;;;;;;;;5050752;28;20378;-79
2023/06/15 04:38:12;;;;;;;4.18;3.88;;;;;;;;;;5049753;28;20376;-79
2023/06/15 04:40:39;;;;;;;3.80;3.50;;;;;;;;;;5051572;28;20438;-80
2023/06/15 04:43:05;;;;;;;3.70;3.30;;;;;;;;;;5058346;28;20419;-79
2023/06/15 04:45:31;;;;;;;5.10;3.65;;;;;;;;;;5055904;28;20396;-80
2023/06/15 04:47:58;;;;;;;3.83;3.50;;;;;;;;;;5067552;28;21073;-79
2023/06/15 04:50:24;;;;;;;3.80;3.50;;;;;;;;;;5052414;28;20389;-79
2023/06/15 04:52:50;;;;;;;3.67;3.38;;;;;;;;;;5070572;28;20469;-79
2023/06/15 04:55:16;;;;;;;5.65;3.75;;;;;;;;;;5073267;28;20433;-79
2023/06/15 04:57:43;;;;;;;4.73;3.87;;;;;;;;;;5074310;28;20412;-80
2023/06/15 05:00:10;;;;;;;4.03;3.72;;;;;;;;;;5070537;28;20781;-79
2023/06/15 05:02:37;;;;;;;4.07;3.75;;;;;;;;;;5054335;28;20381;-80
2023/06/15 05:05:03;;;;;;;4.25;3.80;;;;;;;;;;5053890;28;20408;-79
2023/06/15 05:07:29;;;;;;;3.85;3.42;;;;;;;;;;5054094;28;20386;-80
2023/06/15 05:09:55;;;;;;;3.85;3.55;;;;;;;;;;5054330;28;20377;-80
2023/06/15 05:12:21;;;;;;;4.07;3.70;;;;;;;;;;5054074;28;20991;-79
2023/06/15 05:14:47;;;;;;;3.75;3.45;;;;;;;;;;5054237;28;20739;-79
2023/06/15 05:17:13;;;;;;;4.68;3.80;;;;;;;;;;5054037;28;20389;-80
2023/06/15 05:19:40;;;;;;;3.80;3.50;;;;;;;;;;5054428;28;20380;-79
2023/06/15 05:22:06;;;;;;;3.70;3.47;;;;;;;;;;5053754;28;20439;-80
2023/06/15 05:24:34;;;;;;;3.90;3.60;;;;;;;;;;5054038;28;20385;-79
2023/06/15 05:27:02;;;;;;;9.77;4.32;;;;;;;;;;5053836;28;20751;-80
2023/06/15 05:29:28;;;;;;;4.97;3.88;;;;;;;;;;5053829;28;20871;-79
2023/06/15 05:31:55;;;;;;;5.15;3.90;;;;;;;;;;5053876;28;20448;-79
2023/06/15 05:34:23;;;;;;;4.40;4.00;;;;;;;;;;5053067;28;20441;-79
2023/06/15 05:36:49;;;;;;;4.25;3.90;;;;;;;;;;5053482;28;20814;-80
2023/06/15 05:39:15;;;;;;;4.38;4.05;;;;;;;;;;5053658;28;20374;-80
2023/06/15 05:41:41;;;;;;;4.23;3.90;;;;;;;;;;5053698;28;20396;-79
2023/06/15 05:44:07;;;;;;;4.40;3.90;;;;;;;;;;5064191;28;20380;-80
2023/06/15 05:46:33;;;;;;;4.75;4.35;;;;;;;;;;5096122;22;20933;-82
2023/06/15 05:48:59;;;;;;;3.90;3.60;;;;;;;;;;5054061;28;20427;-82
2023/06/15 05:51:25;;;;;;;5.40;4.20;;;;;;;;;;5061589;28;20803;-82
2023/06/15 05:53:51;;;;;;;5.67;4.27;;;;;;;;;;5073402;28;20383;-82
2023/06/15 05:56:17;;;;;;;5.45;3.90;;;;;;;;;;5073183;28;20388;-82
2023/06/15 05:58:43;;;;;;;4.38;3.97;;;;;;;;;;5073282;28;20463;-82
2023/06/15 06:01:09;;;;;;;4.47;4.07;;;;;;;;;;5073316;28;20368;-82
2023/06/15 06:03:35;;;;;;;5.18;4.28;;;;;;;;;;5073326;28;20849;-82
2023/06/15 06:06:02;;;;;;;4.20;3.90;;;;;;;;;;5072530;28;20401;-83
2023/06/15 06:08:28;;;;;;;4.95;3.95;;;;;;;;;;5073056;28;20453;-83
2023/06/15 06:10:54;;;;;;;3.65;3.45;;;;;;;;;;5073095;28;20853;-82
2023/06/15 06:13:20;;;;;;;4.43;4.03;;;;;;;;;;5072983;28;20434;-82
2023/06/15 06:15:46;;;;;;;4.28;3.55;;;;;;;;;;5072837;28;20375;-82
2023/06/15 06:18:12;;;;;;;4.40;3.95;;;;;;;;;;5072868;28;20379;-83
2023/06/15 06:20:38;;;;;;;4.20;3.80;;;;;;;;;;5070878;28;20845;-82
2023/06/15 06:23:04;;;;;;;4.20;3.90;;;;;;;;;;5052766;28;20393;-83
2023/06/15 06:25:30;;;;;;;4.38;3.97;;;;;;;;;;5052677;28;20388;-83
2023/06/15 06:27:56;;;;;;;4.00;3.70;;;;;;;;;;5052721;28;20465;-82
2023/06/15 06:30:22;;;;;;;5.18;4.07;;;;;;;;;;5052723;28;20906;-83
2023/06/15 06:32:47;;;;;;;4.93;4.10;;;;;;;;;;5052673;28;20419;-84
2023/06/15 06:35:14;;;;;;;4.10;3.78;;;;;;;;;;5052375;28;20381;-83
2023/06/15 06:37:40;;;;;;;4.80;4.00;;;;;;;;;;5052511;28;20370;-83
2023/06/15 06:40:06;;;;;;;5.43;4.60;;;;;;;;;;5052529;28;20381;-84
2023/06/15 06:42:32;;;;;;;4.65;4.15;;;;;;;;;;5052542;28;20417;-83
2023/06/15 06:44:58;;;;;;;5.27;4.53;;;;;;;;;;5052037;28;20397;-83
2023/06/15 06:47:24;;;;;;;4.57;4.17;;;;;;;;;;5054147;28;20411;-84
2023/06/15 06:49:51;;;;;;;5.70;4.32;;;;;;;;;;5056314;28;20391;-83
2023/06/15 06:52:17;;;;;;;5.28;4.10;;;;;;;;;;5067503;28;20508;-84
2023/06/15 06:54:43;;;;;;;3.90;3.60;;;;;;;;;;5064448;28;20865;-83
2023/06/15 06:57:09;;;;;;;4.68;4.28;;;;;;;;;;5055900;28;20431;-83
2023/06/15 06:59:35;;;;;;;4.75;4.35;;;;;;;;;;5054406;28;20859;-84
2023/06/15 07:02:01;;;;;;;4.85;4.45;;;;;;;;;;5052136;28;20409;-83
2023/06/15 07:04:27;;;;;;;4.20;3.80;;;;;;;;;;5051892;28;20396;-83
2023/06/15 07:06:53;;;;;;;4.30;3.95;;;;;;;;;;5052031;28;20386;-84
2023/06/15 07:09:19;;;;;;;4.07;3.77;;;;;;;;;;5052025;28;20475;-84
2023/06/15 07:11:45;;;;;;;5.97;4.63;;;;;;;;;;5051888;28;20889;-83
2023/06/15 07:14:12;;;;;;;5.28;4.60;;;;;;;;;;5051677;28;20387;-83
2023/06/15 07:16:37;;;;;;;4.17;3.77;;;;;;;;;;5051823;28;20398;-84
2023/06/15 07:19:03;;;;;;;4.77;4.37;;;;;;;;;;5051048;28;20746;-83
2023/06/15 07:21:29;;;;;;;4.70;4.30;;;;;;;;;;5051734;28;20408;-84
2023/06/15 07:23:56;;;;;;;4.55;4.15;;;;;;;;;;5051658;28;20873;-84
2023/06/15 07:26:22;;;;;;;4.50;4.07;;;;;;;;;;5051407;28;20403;-84
2023/06/15 07:28:48;;;;;;;4.90;4.20;;;;;;;;;;5051337;28;20461;-85
2023/06/15 07:31:14;;;;;;;4.80;3.90;;;;;;;;;;5051537;28;20392;-84
2023/06/15 07:33:40;;;;;;;5.13;4.10;;;;;;;;;;5051483;28;20496;-84
2023/06/15 07:36:06;;;;;;;4.20;3.90;;;;;;;;;;5051769;28;20370;-84
2023/06/15 07:38:32;;;;;;;4.13;3.83;;;;;;;;;;5051585;28;20979;-85
2023/06/15 07:40:58;;;;;;;6.25;4.00;;;;;;;;;;5051341;28;20381;-84
2023/06/15 07:43:24;;;;;;;4.77;4.37;;;;;;;;;;5051544;28;20465;-84
2023/06/15 07:45:50;;;;;;;4.63;4.20;;;;;;;;;;5051216;28;20490;-84
2023/06/15 07:48:16;;;;;;;5.63;4.07;;;;;;;;;;5051356;28;20393;-84
2023/06/15 07:50:42;;;;;;;4.88;3.88;;;;;;;;;;5051201;28;20515;-84
2023/06/15 07:53:08;;;;;;;4.25;3.83;;;;;;;;;;5066557;28;20812;-84
2023/06/15 07:55:34;;;;;;;4.40;4.00;;;;;;;;;;5056517;28;20384;-85
2023/06/15 07:58:00;;;;;;;4.28;3.97;;;;;;;;;;5065443;28;20380;-84
2023/06/15 08:00:26;;;;;;;5.13;4.65;;;;;;;;;;5058463;28;20451;-84
2023/06/15 08:02:52;;;;;;;4.93;4.18;;;;;;;;;;5060025;28;20845;-84
2023/06/15 08:05:18;;;;;;;4.63;4.22;;;;;;;;;;5071268;28;20380;-84
2023/06/15 08:07:44;;;;;;;4.60;4.20;;;;;;;;;;5071240;28;20382;-84
2023/06/15 08:10:10;;;;;;;5.03;4.60;;;;;;;;;;5070965;28;20372;-83
2023/06/15 08:12:36;;;;;;;6.15;4.18;;;;;;;;;;5071400;28;20395;-84
2023/06/15 08:15:02;;;;;;;4.60;4.20;;;;;;;;;;5071079;28;20387;-84
2023/06/15 08:17:28;;;;;;;4.38;3.97;;;;;;;;;;5071151;28;20375;-84
2023/06/15 08:19:54;;;;;;;4.30;3.90;;;;;;;;;;5071149;28;20364;-84
2023/06/15 08:22:20;;;;;;;5.03;3.75;;;;;;;;;;5069821;28;20465;-84
2023/06/15 08:24:46;;;;;;;4.97;3.60;;;;;;;;;;5071107;28;20466;-83
2023/06/15 08:27:13;;;;;;;7.15;3.70;;;;;;;;;;5070895;28;20506;-85
2023/06/15 08:29:43;;;;;;;4.35;3.67;;;;;;;;;;5072273;28;20465;-85
2023/06/15 08:32:13;;;;;;;6.75;3.70;;;;;;;;;;5058524;28;20411;-83
2023/06/15 08:34:39;;;;;;;4.03;3.42;;;;;;;;;;5055005;28;20381;-82
2023/06/15 08:37:05;;;;;;;3.60;3.30;;;;;;;;;;5054963;28;20453;-84
2023/06/15 08:39:31;;;;;;;4.20;3.35;;;;;;;;;;5054980;28;20728;-83
2023/06/15 08:41:57;;;;;;;4.38;3.40;;;;;;;;;;5054908;28;20869;-84
2023/06/15 08:44:23;;;;;;;4.20;3.08;;;;;;;;;;5054897;28;20503;-83
2023/06/15 08:46:50;;;;;;;3.85;3.42;;;;;;;;;;5054244;28;20405;-84
2023/06/15 08:49:16;;;;;;;3.15;2.80;;;;;;;;;;5054514;28;20396;-85
2023/06/15 08:51:42;;;;;;;4.05;3.03;;;;;;;;;;5054551;28;20393;-83
2023/06/15 08:54:09;;;;;;;4.20;3.55;;;;;;;;;;5067853;28;20379;-84
2023/06/15 08:56:38;;;;;;;4.60;3.15;;;;;;;;;;5056746;28;20739;-83
2023/06/15 08:59:04;;;;;;;6.45;3.38;;;;;;;;;;5067463;28;20381;-84
2023/06/15 09:01:31;;;;;;;6.82;3.17;;;;;;;;;;5064018;28;20372;-83
2023/06/15 09:03:57;;;;;;;4.93;3.33;;;;;;;;;;5057095;28;20779;-84
2023/06/15 09:06:23;;;;;;;4.40;3.67;;;;;;;;;;5054251;28;20746;-84
2023/06/15 09:08:51;;;;;;;6.15;3.45;;;;;;;;;;5054217;28;20381;-84
2023/06/15 09:11:18;;;;;;;3.63;3.30;;;;;;;;;;5054387;28;20389;-83
2023/06/15 09:13:44;;;;;;;3.28;2.97;;;;;;;;;;5054214;28;20401;-84
2023/06/15 09:16:11;;;;;;;5.47;3.42;;;;;;;;;;5054054;28;20381;-84
2023/06/15 09:18:45;;;;;;;4.78;3.83;;;;;;;;;;5054080;28;20369;-84
2023/06/15 09:21:12;;;;;;;60.40;6.63;;;;;;;;;;5054122;28;20873;-84
2023/06/15 09:23:40;;;;;;;37.95;5.35;;;;;;;;;;5054078;28;20381;-84
2023/06/15 09:26:07;;;;;;;5.30;3.22;;;;;;;;;;5053777;28;20408;-83
2023/06/15 09:28:33;;;;;;;4.13;3.30;;;;;;;;;;5053775;28;20500;-84
2023/06/15 09:31:00;;;;;;;4.20;3.08;;;;;;;;;;5053743;28;20468;-83
2023/06/15 09:33:26;;;;;;;3.30;2.88;;;;;;;;;;5053754;28;20401;-84
2023/06/15 09:36:02;;;;;;;3.70;3.40;;;;;;;;;;5053727;28;20907;-84
2023/06/15 09:38:31;;;;;;;5.05;2.97;;;;;;;;;;5053861;28;20377;-84
2023/06/15 09:40:57;;;;;;;4.20;3.05;;;;;;;;;;5052891;28;20405;-84
2023/06/15 09:43:23;;;;;;;5.18;3.17;;;;;;;;;;5053687;28;20381;-84
2023/06/15 09:45:53;;;;;;;4.37;3.50;;;;;;;;;;5053142;28;20397;-83
2023/06/15 09:48:20;;;;;;;4.67;3.40;;;;;;;;;;5053689;28;20465;-84
2023/06/15 09:50:49;;;;;;;3.55;3.17;;;;;;;;;;5053674;28;20381;-84
2023/06/15 09:53:16;;;;;;;3.25;2.95;;;;;;;;;;5053525;28;20401;-84
2023/06/15 09:55:46;;;;;;;3.33;2.80;;;;;;;;;;5053703;28;20439;-84
2023/06/15 09:58:12;;;;;;;3.20;2.90;;;;;;;;;;5059397;28;20870;-84
2023/06/15 10:00:38;;;;;;;6.25;3.13;;;;;;;;;;5064733;28;20388;-83
2023/06/15 10:03:08;;;;;;;3.42;3.13;;;;;;;;;;5056709;28;20732;-84
2023/06/15 10:05:37;;;;;;;3.25;2.95;;;;;;;;;;5065402;28;20410;-83
2023/06/15 10:08:07;;;;;;;3.45;3.15;;;;;;;;;;5073226;28;20872;-83
2023/06/15 10:10:37;;;;;;;3.42;3.13;;;;;;;;;;5073509;28;20798;-84
2023/06/15 10:13:04;;;;;;;3.50;3.20;;;;;;;;;;5073113;28;20403;-84
2023/06/15 10:15:31;;;;;;;3.78;3.20;;;;;;;;;;5072811;28;20849;-83
2023/06/15 10:17:58;;;;;;;5.47;3.15;;;;;;;;;;5073084;28;20376;-84
2023/06/15 10:20:24;;;;;;;3.55;3.25;;;;;;;;;;5073073;28;20868;-83
2023/06/15 10:22:53;;;;;;;3.90;3.28;;;;;;;;;;5073009;28;20474;-83
2023/06/15 10:25:20;;;;;;;3.35;3.03;;;;;;;;;;5059553;28;20922;-83
2023/06/15 10:27:47;;;;;;;5.75;3.05;;;;;;;;;;5052944;28;20381;-83
2023/06/15 10:30:25;;;;;;;3.95;3.40;;;;;;;;;;5052929;28;20377;-83
2023/06/15 10:33:20;;;;;;;3.30;3.00;;;;;;;;;;5052533;28;20397;-83
2023/06/15 10:35:51;;;;;;;3.95;3.25;;;;;;;;;;5031477;28;20394;-83
2023/06/15 10:38:20;;;;;;;4.60;2.90;;;;;;;;;;5052498;28;20438;-84
2023/06/15 10:40:47;;;;;;;6.60;3.27;;;;;;;;;;5052726;28;20380;-85
2023/06/15 10:43:18;;;;;;;3.10;2.50;;;;;;;;;;5052420;28;20378;-83
2023/06/15 10:45:44;;;;;;;3.43;3.13;;;;;;;;;;5052325;28;20413;-84
2023/06/15 10:48:20;;;;;;;3.50;3.20;;;;;;;;;;5052527;28;20504;-85
2023/06/15 10:50:51;;;;;;;4.13;3.17;;;;;;;;;;5052595;28;20412;-84
2023/06/15 10:53:24;;;;;;;3.57;2.90;;;;;;;;;;5052374;28;20758;-84
2023/06/15 10:55:54;;;;;;;3.50;3.00;;;;;;;;;;5052277;28;20408;-84
2023/06/15 10:58:20;;;;;;;3.92;3.00;;;;;;;;;;5066043;28;20418;-84
2023/06/15 11:00:56;;;;;;;3.00;2.80;;;;;;;;;;5057417;28;20493;-84
2023/06/15 11:03:24;;;;;;;3.50;3.20;;;;;;;;;;5061034;28;20385;-84
2023/06/15 11:06:00;;;;;;;3.78;3.00;;;;;;;;;;5064048;28;20892;-84
2023/06/15 11:08:27;;;;;;;4.32;2.90;;;;;;;;;;5053825;28;20443;-84
2023/06/15 11:10:53;;;;;;;3.42;2.92;;;;;;;;;;5051406;28;21256;-84
2023/06/15 11:13:24;;;;;;;2.95;2.75;;;;;;;;;;5052058;28;20413;-83
2023/06/15 11:16:05;;;;;;;3.72;2.88;;;;;;;;;;5051948;28;20555;-84
2023/06/15 11:18:31;;;;;;;3.40;2.83;;;;;;;;;;5051965;28;20416;-84
2023/06/15 11:21:02;;;;;;;2.80;2.60;;;;;;;;;;5051742;28;21052;-84
2023/06/15 11:23:33;;;;;;;3.35;2.53;;;;;;;;;;5051699;28;20393;-84
2023/06/15 11:26:01;;;;;;;2.88;2.67;;;;;;;;;;5051470;28;20476;-84
2023/06/15 11:28:31;;;;;;;3.13;2.83;;;;;;;;;;5051900;28;20385;-85
2023/06/15 11:30:59;;;;;;;3.10;2.80;;;;;;;;;;5051544;28;20395;-85
2023/06/15 11:33:27;;;;;;;3.17;2.80;;;;;;;;;;5051680;28;20412;-85
2023/06/15 11:35:53;;;;;;;3.30;2.50;;;;;;;;;;5051713;28;20384;-84
2023/06/15 11:38:21;;;;;;;3.00;2.78;;;;;;;;;;5051759;28;20377;-85
2023/06/15 11:40:47;;;;;;;3.10;2.70;;;;;;;;;;5051438;28;20384;-85
2023/06/15 11:43:14;;;;;;;3.30;2.47;;;;;;;;;;5050250;28;20389;-84
2023/06/15 11:45:50;;;;;;;2.72;2.50;;;;;;;;;;5049953;28;20455;-85
2023/06/15 11:48:16;;;;;;;3.20;2.63;;;;;;;;;;5051644;28;20373;-85
2023/06/15 11:50:42;;;;;;;2.73;2.53;;;;;;;;;;5051245;28;20397;-84
2023/06/15 11:53:14;;;;;;;2.95;2.75;;;;;;;;;;5051436;28;20397;-85
2023/06/15 11:55:46;;;;;;;3.45;2.90;;;;;;;;;;5051428;28;20855;-85
2023/06/15 11:58:13;;;;;;;3.35;2.72;;;;;;;;;;5051212;28;20510;-85
2023/06/15 12:00:40;;;;;;;2.80;2.60;;;;;;;;;;5054969;28;20734;-85
2023/06/15 12:03:12;;;;;;;2.88;2.58;;;;;;;;;;5066943;28;20380;-85
2023/06/15 12:05:39;;;;;;;2.88;2.58;;;;;;;;;;5055042;28;20466;-85
2023/06/15 12:08:08;;;;;;;3.28;2.22;;;;;;;;;;5064623;28;20386;-85
2023/06/15 12:10:35;;;;;;;5.05;2.90;;;;;;;;;;5063153;28;20407;-85
2023/06/15 12:13:01;;;;;;;2.67;2.47;;;;;;;;;;5071218;28;20859;-85
2023/06/15 12:15:28;;;;;;;2.72;2.53;;;;;;;;;;5071173;28;20411;-86
2023/06/15 12:17:55;;;;;;;2.88;2.67;;;;;;;;;;5071149;28;20378;-85
2023/06/15 12:20:26;;;;;;;2.60;2.40;;;;;;;;;;5059975;28;20369;-85
2023/06/15 12:22:52;;;;;;;3.65;2.67;;;;;;;;;;5051168;28;20385;-84
2023/06/15 12:25:18;;;;;;;3.80;2.60;;;;;;;;;;5051059;28;20396;-85
2023/06/15 12:27:45;;;;;;;3.13;2.60;;;;;;;;;;5050962;28;20381;-86
2023/06/15 12:30:12;;;;;;;3.35;2.40;;;;;;;;;;5051093;28;20382;-85
2023/06/15 12:32:44;;;;;;;4.07;2.42;;;;;;;;;;5051025;28;20405;-85
2023/06/15 12:35:26;;;;;;;3.33;2.45;;;;;;;;;;5050965;28;20851;-86
2023/06/15 12:37:53;;;;;;;2.92;2.60;;;;;;;;;;5049436;28;20415;-86
2023/06/15 12:40:23;;;;;;;2.90;2.70;;;;;;;;;;5050997;28;20377;-86
2023/06/15 12:42:59;;;;;;;3.30;2.40;;;;;;;;;;5050718;28;20386;-85
2023/06/15 12:45:25;;;;;;;2.87;2.40;;;;;;;;;;5050562;28;20434;-85
2023/06/15 12:47:51;;;;;;;2.85;2.60;;;;;;;;;;5050797;28;20374;-85
2023/06/15 12:50:17;;;;;;;2.58;2.38;;;;;;;;;;5050921;28;20418;-85
2023/06/15 12:52:43;;;;;;;2.80;2.50;;;;;;;;;;5050405;28;20848;-84
2023/06/15 12:55:09;;;;;;;4.22;2.60;;;;;;;;;;5050698;28;20385;-84
2023/06/15 12:57:35;;;;;;;2.90;2.70;;;;;;;;;;5050742;28;20385;-85
2023/06/15 13:00:02;;;;;;;2.67;2.47;;;;;;;;;;5050851;28;20475;-84
2023/06/15 13:02:28;;;;;;;4.90;2.83;;;;;;;;;;5051473;28;20417;-85
2023/06/15 13:04:56;;;;;;;2.72;2.53;;;;;;;;;;5049960;28;20845;-85
2023/06/15 13:07:24;;;;;;;3.33;2.65;;;;;;;;;;5068750;28;20884;-84
2023/06/15 13:09:50;;;;;;;3.37;2.90;;;;;;;;;;5057195;28;20408;-84
2023/06/15 13:12:16;;;;;;;3.10;2.80;;;;;;;;;;5069138;28;20896;-85
2023/06/15 13:14:42;;;;;;;3.90;3.10;;;;;;;;;;5070407;28;20382;-85
2023/06/15 13:17:08;;;;;;;3.63;2.72;;;;;;;;;;5072720;28;20379;-84
2023/06/15 13:19:34;;;;;;;3.50;2.83;;;;;;;;;;5074216;28;20371;-84
2023/06/15 13:22:00;;;;;;;4.70;2.70;;;;;;;;;;5074200;28;20867;-84
2023/06/15 13:24:26;;;;;;;4.43;2.60;;;;;;;;;;5073978;28;20380;-84
2023/06/15 13:26:52;;;;;;;2.80;2.60;;;;;;;;;;5074088;28;20481;-84
2023/06/15 13:29:18;;;;;;;2.97;2.67;;;;;;;;;;5068333;28;20921;-85
2023/06/15 13:31:44;;;;;;;3.72;2.53;;;;;;;;;;5053574;28;20393;-84
2023/06/15 13:34:10;;;;;;;3.25;2.63;;;;;;;;;;5053736;28;20370;-83
2023/06/15 13:36:38;;;;;;;2.90;2.60;;;;;;;;;;5054090;28;20423;-84
2023/06/15 13:39:04;;;;;;;2.78;2.45;;;;;;;;;;5053937;28;20436;-85
2023/06/15 13:41:30;;;;;;;3.72;2.60;;;;;;;;;;5053817;28;20385;-84
2023/06/15 13:43:56;;;;;;;3.15;2.72;;;;;;;;;;5053643;28;20377;-83
2023/06/15 13:46:22;;;;;;;3.20;2.55;;;;;;;;;;5053498;28;20419;-84
2023/06/15 13:48:48;;;;;;;3.10;2.80;;;;;;;;;;5053699;28;20468;-84
2023/06/15 13:51:14;;;;;;;3.00;2.70;;;;;;;;;;5053655;28;20473;-84
2023/06/15 13:53:40;;;;;;;2.95;2.40;;;;;;;;;;5053230;28;20401;-84
2023/06/15 13:56:06;;;;;;;2.70;2.50;;;;;;;;;;5053530;28;20393;-84
2023/06/15 13:58:32;;;;;;;3.10;2.80;;;;;;;;;;5053486;28;20396;-85
2023/06/15 14:00:58;;;;;;;4.78;2.85;;;;;;;;;;5053431;28;20485;-84
2023/06/15 14:03:24;;;;;;;3.17;2.67;;;;;;;;;;5053254;28;20809;-85
2023/06/15 14:05:51;;;;;;;3.35;2.60;;;;;;;;;;5053261;28;20846;-84
2023/06/15 14:08:17;;;;;;;2.80;2.60;;;;;;;;;;5053307;28;20377;-84
2023/06/15 14:10:43;;;;;;;4.50;2.95;;;;;;;;;;5053273;28;20439;-84
2023/06/15 14:13:09;;;;;;;3.88;2.58;;;;;;;;;;5059393;28;20405;-85
2023/06/15 14:15:35;;;;;;;3.15;2.85;;;;;;;;;;5060263;28;20376;-84
2023/06/15 14:18:01;;;;;;;2.88;2.67;;;;;;;;;;5058784;28;20716;-84
2023/06/15 14:20:27;;;;;;;3.08;2.58;;;;;;;;;;5068699;28;20376;-84
2023/06/15 14:22:53;;;;;;;6.00;2.60;;;;;;;;;;5052895;28;20894;-85
2023/06/15 14:25:19;;;;;;;2.72;2.50;;;;;;;;;;5052898;28;20381;-85
2023/06/15 14:27:47;;;;;;;3.13;2.83;;;;;;;;;;5052539;28;20389;-84
2023/06/15 14:30:14;;;;;;;2.90;2.70;;;;;;;;;;5052915;28;20385;-84
2023/06/15 14:32:40;;;;;;;2.58;2.38;;;;;;;;;;5052567;28;20409;-83
2023/06/15 14:35:07;;;;;;;3.40;2.70;;;;;;;;;;5052818;28;20408;-84
2023/06/15 14:37:33;;;;;;;2.83;2.63;;;;;;;;;;5052805;28;20416;-85
2023/06/15 14:40:01;;;;;;;2.75;2.55;;;;;;;;;;5052724;28;20384;-84
2023/06/15 14:42:27;;;;;;;2.83;2.63;;;;;;;;;;5052484;28;20885;-83